Time;durP1;ratioP1;P1;durP2;ratioP2;P2;SDS_P1;SDS_P2;PMS_P1;PMS_P2;Temp;Humidity;BMP_temperature;BMP_pressure;BME280_temperature;BME280_humidity;BME280_pressure;Samples;Min_cycle;Max_cycle;Signal;HPM_P1;HPM_P2
2023/08/08 00:01:42;;;;;;;3.70;2.08;;;;;;;;;;4404020;32;415746;-93
2023/08/08 00:04:10;;;;;;;3.78;2.05;;;;;;;;;;4418770;32;316689;-89
2023/08/08 00:06:38;;;;;;;2.67;1.62;;;;;;;;;;4403792;32;419063;-91
2023/08/08 00:09:06;;;;;;;2.72;1.67;;;;;;;;;;4419289;32;332714;-92
2023/08/08 00:11:34;;;;;;;2.13;1.60;;;;;;;;;;4406610;32;316448;-92
2023/08/08 00:14:02;;;;;;;5.00;2.05;;;;;;;;;;4417783;32;316582;-94
2023/08/08 00:16:30;;;;;;;2.65;1.60;;;;;;;;;;4405709;32;316884;-92
2023/08/08 00:19:30;;;;;;;2.03;1.75;;;;;;;;;;4403494;27;316531;-93
2023/08/08 00:27:31;;;;;;;3.15;1.80;;;;;;;;;;4353346;32;316358;-93
2023/08/08 00:32:46;;;;;;;3.65;2.53;;;;;;;;;;4358487;32;389386;-93
2023/08/08 00:35:15;;;;;;;2.92;1.87;;;;;;;;;;4359593;32;315686;-90
2023/08/08 00:37:47;;;;;;;5.03;2.25;;;;;;;;;;4371651;32;316492;-92
2023/08/08 00:40:16;;;;;;;3.00;1.90;;;;;;;;;;4360204;32;316628;-92
2023/08/08 00:42:46;;;;;;;3.30;2.00;;;;;;;;;;4369798;32;316685;-91
2023/08/08 00:47:58;;;;;;;3.03;2.37;;;;;;;;;;4371618;32;315665;-93
2023/08/08 00:50:30;;;;;;;2.08;1.87;;;;;;;;;;4400447;27;315980;-91
2023/08/08 00:56:02;;;;;;;4.60;2.40;;;;;;;;;;4386038;32;389288;-93
2023/08/08 00:58:32;;;;;;;4.12;2.03;;;;;;;;;;4390429;32;316548;-90
2023/08/08 01:01:01;;;;;;;3.05;2.28;;;;;;;;;;4398671;32;315635;-95
2023/08/08 01:03:29;;;;;;;2.55;1.87;;;;;;;;;;4395343;32;316425;-93
2023/08/08 01:06:04;;;;;;;4.60;1.95;;;;;;;;;;4407181;32;316467;-96
2023/08/08 01:08:43;;;;;;;2.87;2.37;;;;;;;;;;4397431;32;316419;-96
2023/08/08 01:11:12;;;;;;;8.50;7.37;;;;;;;;;;4407044;32;316361;-96
2023/08/08 01:13:41;;;;;;;10.02;9.02;;;;;;;;;;4397020;32;387438;-96
2023/08/08 01:16:09;;;;;;;10.80;9.60;;;;;;;;;;4407711;32;316355;-96
2023/08/08 01:18:39;;;;;;;7.35;6.57;;;;;;;;;;4380471;32;416952;-96
2023/08/08 01:21:08;;;;;;;7.03;3.97;;;;;;;;;;4388981;32;316373;-96
2023/08/08 01:23:53;;;;;;;4.20;2.65;;;;;;;;;;4381324;32;316513;-95
2023/08/08 01:26:23;;;;;;;2.37;1.92;;;;;;;;;;4378815;32;316705;-94
2023/08/08 01:28:55;;;;;;;3.33;2.37;;;;;;;;;;4394654;32;316320;-96
2023/08/08 01:31:23;;;;;;;2.33;1.90;;;;;;;;;;4383524;32;316748;-96
2023/08/08 01:33:51;;;;;;;4.80;2.47;;;;;;;;;;4391822;32;335642;-95
2023/08/08 01:36:26;;;;;;;3.50;2.20;;;;;;;;;;4384391;32;316606;-96
2023/08/08 01:38:59;;;;;;;2.78;2.33;;;;;;;;;;4393988;32;316410;-96
2023/08/08 01:41:29;;;;;;;3.30;2.55;;;;;;;;;;4384448;32;316454;-94
2023/08/08 01:43:56;;;;;;;2.42;1.98;;;;;;;;;;4393830;32;316618;-96
2023/08/08 01:46:25;;;;;;;3.70;2.12;;;;;;;;;;4382036;32;316627;-96
2023/08/08 01:48:53;;;;;;;4.20;2.17;;;;;;;;;;4393399;32;316456;-96
2023/08/08 01:51:21;;;;;;;2.40;2.10;;;;;;;;;;4376775;32;316630;-95
2023/08/08 01:53:48;;;;;;;3.35;1.45;;;;;;;;;;4389181;32;316556;-96
2023/08/08 01:56:16;;;;;;;3.00;1.70;;;;;;;;;;4377048;32;316584;-96
2023/08/08 01:58:45;;;;;;;3.42;1.98;;;;;;;;;;4386756;32;316576;-94
2023/08/08 02:01:13;;;;;;;2.65;1.77;;;;;;;;;;4375003;32;316816;-92
2023/08/08 02:03:40;;;;;;;3.80;1.87;;;;;;;;;;4385844;32;316731;-91
2023/08/08 02:06:08;;;;;;;3.78;2.40;;;;;;;;;;4385951;32;316707;-92
2023/08/08 02:08:36;;;;;;;1.92;1.73;;;;;;;;;;4374677;32;316886;-90
2023/08/08 02:11:03;;;;;;;3.28;1.90;;;;;;;;;;4386013;32;316889;-93
2023/08/08 02:13:31;;;;;;;2.72;1.92;;;;;;;;;;4375181;32;316675;-94
2023/08/08 02:16:00;;;;;;;2.67;1.83;;;;;;;;;;4384792;32;316658;-91
2023/08/08 02:18:28;;;;;;;2.70;1.70;;;;;;;;;;4375003;32;317053;-93
2023/08/08 02:20:55;;;;;;;3.25;1.90;;;;;;;;;;4385783;32;317252;-93
2023/08/08 02:23:23;;;;;;;3.05;1.90;;;;;;;;;;4372764;32;316670;-89
2023/08/08 02:25:50;;;;;;;2.20;1.90;;;;;;;;;;4385042;32;316742;-92
2023/08/08 02:28:18;;;;;;;2.78;2.00;;;;;;;;;;4366957;32;316490;-91
2023/08/08 02:30:46;;;;;;;6.97;2.25;;;;;;;;;;4373065;32;316610;-96
2023/08/08 02:33:15;;;;;;;1.98;1.45;;;;;;;;;;4374801;32;316694;-96
2023/08/08 02:35:43;;;;;;;2.10;1.83;;;;;;;;;;4385637;32;316671;-95
2023/08/08 02:38:11;;;;;;;1.77;1.67;;;;;;;;;;4386281;32;316634;-96
2023/08/08 02:40:40;;;;;;;2.37;1.90;;;;;;;;;;4375300;32;415833;-96
2023/08/08 02:43:09;;;;;;;6.70;5.20;;;;;;;;;;4386179;32;316694;-91
2023/08/08 02:45:36;;;;;;;5.43;3.97;;;;;;;;;;4377954;32;317144;-91
2023/08/08 02:48:04;;;;;;;3.90;3.15;;;;;;;;;;4387498;32;316738;-91
2023/08/08 02:50:33;;;;;;;3.12;2.00;;;;;;;;;;4376783;32;316454;-91
2023/08/08 02:53:01;;;;;;;2.50;2.17;;;;;;;;;;4388171;32;316564;-90
2023/08/08 02:55:29;;;;;;;3.83;2.00;;;;;;;;;;4376621;32;316688;-91
2023/08/08 02:57:58;;;;;;;6.95;2.03;;;;;;;;;;4386950;32;316549;-90
2023/08/08 03:00:26;;;;;;;3.80;1.87;;;;;;;;;;4375500;32;316635;-89
2023/08/08 03:02:54;;;;;;;3.37;1.62;;;;;;;;;;4386965;32;316993;-89
2023/08/08 03:05:21;;;;;;;3.45;2.10;;;;;;;;;;4377868;32;317068;-90
2023/08/08 03:07:51;;;;;;;2.03;1.80;;;;;;;;;;4388367;32;316891;-90
2023/08/08 03:10:18;;;;;;;1.85;1.55;;;;;;;;;;4376236;32;317112;-90
2023/08/08 03:12:46;;;;;;;6.57;2.08;;;;;;;;;;4387794;32;317040;-89
2023/08/08 03:15:13;;;;;;;3.15;2.10;;;;;;;;;;4372489;32;355098;-90
2023/08/08 03:17:41;;;;;;;2.47;1.20;;;;;;;;;;4387921;32;316958;-89
2023/08/08 03:20:10;;;;;;;2.03;1.60;;;;;;;;;;4387550;32;341174;-91
2023/08/08 03:22:38;;;;;;;2.15;1.52;;;;;;;;;;4375252;32;416251;-90
2023/08/08 03:25:08;;;;;;;6.68;1.40;;;;;;;;;;4386373;32;316664;-90
2023/08/08 03:27:35;;;;;;;1.67;1.42;;;;;;;;;;4377096;32;317393;-90
2023/08/08 03:30:03;;;;;;;5.97;1.70;;;;;;;;;;4387679;32;316743;-90
2023/08/08 03:32:30;;;;;;;1.30;1.20;;;;;;;;;;4376468;32;316787;-90
2023/08/08 03:34:58;;;;;;;7.10;1.90;;;;;;;;;;4388065;32;317124;-90
2023/08/08 03:37:26;;;;;;;3.58;1.80;;;;;;;;;;4375377;32;316886;-90
2023/08/08 03:39:55;;;;;;;2.95;1.67;;;;;;;;;;4386645;32;317045;-90
2023/08/08 03:42:25;;;;;;;1.80;1.48;;;;;;;;;;4376899;32;316764;-91
2023/08/08 03:44:52;;;;;;;1.85;1.55;;;;;;;;;;4388015;32;316696;-90
2023/08/08 03:47:22;;;;;;;1.62;1.52;;;;;;;;;;4376128;32;316661;-89
2023/08/08 03:49:49;;;;;;;3.30;1.50;;;;;;;;;;4387477;32;316809;-89
2023/08/08 03:52:17;;;;;;;3.30;1.60;;;;;;;;;;4387000;32;316717;-90
2023/08/08 03:54:44;;;;;;;2.70;1.65;;;;;;;;;;4374631;32;416357;-90
2023/08/08 03:57:13;;;;;;;2.37;1.75;;;;;;;;;;4385771;32;316667;-90
2023/08/08 03:59:41;;;;;;;4.30;1.98;;;;;;;;;;4376955;32;317139;-90
2023/08/08 04:02:09;;;;;;;5.90;1.67;;;;;;;;;;4386897;32;316629;-91
2023/08/08 04:04:36;;;;;;;10.18;1.90;;;;;;;;;;4377794;32;316820;-90
2023/08/08 04:07:04;;;;;;;3.25;1.50;;;;;;;;;;4387569;32;318404;-90
2023/08/08 04:09:32;;;;;;;2.22;1.75;;;;;;;;;;4377067;32;316690;-91
2023/08/08 04:12:00;;;;;;;5.20;1.62;;;;;;;;;;4386513;32;317010;-90
2023/08/08 04:14:28;;;;;;;3.97;1.80;;;;;;;;;;4377099;32;316692;-91
2023/08/08 04:16:58;;;;;;;5.45;2.53;;;;;;;;;;4386377;32;316587;-89
2023/08/08 04:19:26;;;;;;;2.05;1.45;;;;;;;;;;4374499;32;316914;-91
2023/08/08 04:21:54;;;;;;;8.45;2.03;;;;;;;;;;4387566;32;316674;-91
2023/08/08 04:24:21;;;;;;;3.35;2.08;;;;;;;;;;4377328;32;317021;-91
2023/08/08 04:26:49;;;;;;;3.80;2.00;;;;;;;;;;4386589;32;316959;-91
2023/08/08 04:29:17;;;;;;;4.65;2.35;;;;;;;;;;4388905;32;316857;-91
2023/08/08 04:31:44;;;;;;;2.40;2.00;;;;;;;;;;4375129;32;415997;-91
2023/08/08 04:34:13;;;;;;;4.97;2.47;;;;;;;;;;4386514;32;317072;-91
2023/08/08 04:36:41;;;;;;;3.05;1.95;;;;;;;;;;4377399;32;316937;-91
2023/08/08 04:39:09;;;;;;;8.60;4.62;;;;;;;;;;4387091;32;317178;-90
2023/08/08 04:41:37;;;;;;;18.67;5.55;;;;;;;;;;4375935;32;316769;-90
2023/08/08 04:44:05;;;;;;;5.47;3.97;;;;;;;;;;4387509;32;318269;-90
2023/08/08 04:46:34;;;;;;;8.65;7.05;;;;;;;;;;4361091;32;316929;-90
2023/08/08 04:49:01;;;;;;;5.28;4.47;;;;;;;;;;4387220;32;317091;-90
2023/08/08 04:51:32;;;;;;;5.35;2.53;;;;;;;;;;4380173;32;316793;-94
2023/08/08 04:54:00;;;;;;;3.15;2.10;;;;;;;;;;4390037;32;316686;-94
2023/08/08 04:56:28;;;;;;;3.83;1.98;;;;;;;;;;4377766;32;316793;-93
2023/08/08 04:58:55;;;;;;;3.03;1.52;;;;;;;;;;4388959;32;316707;-93
2023/08/08 05:01:23;;;;;;;5.15;1.87;;;;;;;;;;4376501;32;316873;-95
2023/08/08 05:03:54;;;;;;;2.83;1.87;;;;;;;;;;4386687;32;316825;-94
2023/08/08 05:06:22;;;;;;;7.85;1.58;;;;;;;;;;4372402;32;316798;-94
2023/08/08 05:08:54;;;;;;;2.72;1.70;;;;;;;;;;4387001;32;316746;-93
2023/08/08 05:11:21;;;;;;;1.70;1.60;;;;;;;;;;4375794;32;316892;-93
2023/08/08 05:13:49;;;;;;;2.30;1.35;;;;;;;;;;4384266;32;355718;-92
2023/08/08 05:16:16;;;;;;;2.15;1.60;;;;;;;;;;4387258;32;316895;-95
2023/08/08 05:18:45;;;;;;;2.17;1.25;;;;;;;;;;4372550;32;386242;-94
2023/08/08 05:21:12;;;;;;;1.37;1.27;;;;;;;;;;4386492;32;316728;-92
2023/08/08 05:23:40;;;;;;;2.03;1.45;;;;;;;;;;4374022;32;316637;-95
2023/08/08 05:26:10;;;;;;;3.30;1.40;;;;;;;;;;4386188;32;316806;-95
2023/08/08 05:28:38;;;;;;;1.62;1.30;;;;;;;;;;4376347;32;316595;-93
2023/08/08 05:31:06;;;;;;;5.32;1.52;;;;;;;;;;4387956;32;316737;-93
2023/08/08 05:33:34;;;;;;;2.35;1.20;;;;;;;;;;4376211;32;316720;-93
2023/08/08 05:36:02;;;;;;;1.50;1.35;;;;;;;;;;4388001;32;316816;-93
2023/08/08 05:38:30;;;;;;;1.12;1.00;;;;;;;;;;4374498;32;316792;-90
2023/08/08 05:40:59;;;;;;;2.05;1.27;;;;;;;;;;4385249;32;316658;-90
2023/08/08 05:43:29;;;;;;;1.55;1.17;;;;;;;;;;4376342;32;316856;-92
2023/08/08 05:45:56;;;;;;;3.17;1.30;;;;;;;;;;4386319;32;316681;-91
2023/08/08 05:48:24;;;;;;;2.53;1.45;;;;;;;;;;4375416;32;316619;-90
2023/08/08 05:50:51;;;;;;;2.47;1.58;;;;;;;;;;4385113;32;316636;-90
2023/08/08 05:53:19;;;;;;;1.20;1.10;;;;;;;;;;4375872;32;317012;-89
2023/08/08 05:55:46;;;;;;;2.10;1.23;;;;;;;;;;4384878;32;316710;-89
2023/08/08 05:58:15;;;;;;;5.12;1.20;;;;;;;;;;4383838;32;316729;-88
2023/08/08 06:00:44;;;;;;;0.88;0.88;;;;;;;;;;4374780;32;316890;-87
2023/08/08 06:03:12;;;;;;;1.30;1.20;;;;;;;;;;4384817;32;316738;-83
2023/08/08 06:05:39;;;;;;;2.70;1.37;;;;;;;;;;4374157;32;316776;-83
2023/08/08 06:08:11;;;;;;;1.37;1.20;;;;;;;;;;4383814;32;316990;-83
2023/08/08 06:10:38;;;;;;;0.80;0.80;;;;;;;;;;4375592;32;317218;-83
2023/08/08 06:13:06;;;;;;;1.10;1.00;;;;;;;;;;4383848;32;316769;-83
2023/08/08 06:15:33;;;;;;;1.40;1.30;;;;;;;;;;4388661;32;316856;-82
2023/08/08 06:18:02;;;;;;;2.80;1.20;;;;;;;;;;4400384;32;316823;-83
2023/08/08 06:20:30;;;;;;;1.20;1.10;;;;;;;;;;4390199;32;328616;-82
2023/08/08 06:22:58;;;;;;;1.70;1.60;;;;;;;;;;4398549;32;316849;-83
2023/08/08 06:25:26;;;;;;;5.43;1.20;;;;;;;;;;4381934;32;316650;-83
2023/08/08 06:27:53;;;;;;;1.40;1.30;;;;;;;;;;4388491;32;316813;-83
2023/08/08 06:30:21;;;;;;;2.10;1.58;;;;;;;;;;4371406;32;316958;-83
2023/08/08 06:32:50;;;;;;;3.53;2.03;;;;;;;;;;4388729;32;316533;-83
2023/08/08 06:35:19;;;;;;;3.53;2.05;;;;;;;;;;4388141;32;316766;-82
2023/08/08 06:37:48;;;;;;;5.68;2.37;;;;;;;;;;4374465;32;418890;-83
2023/08/08 06:40:17;;;;;;;3.08;2.33;;;;;;;;;;4388435;32;316964;-84
2023/08/08 06:42:45;;;;;;;2.78;2.35;;;;;;;;;;4371700;32;416411;-84
2023/08/08 06:45:14;;;;;;;2.60;2.25;;;;;;;;;;4387932;32;316808;-83
2023/08/08 06:47:42;;;;;;;6.25;2.70;;;;;;;;;;4375903;32;316821;-83
2023/08/08 06:50:10;;;;;;;3.22;2.53;;;;;;;;;;4388592;32;316748;-83
2023/08/08 06:52:40;;;;;;;2.53;2.33;;;;;;;;;;4377554;32;317826;-83
2023/08/08 06:55:08;;;;;;;2.65;2.45;;;;;;;;;;4388723;32;316686;-81
2023/08/08 06:57:36;;;;;;;2.25;2.05;;;;;;;;;;4377315;32;317272;-82
2023/08/08 07:00:05;;;;;;;2.87;2.22;;;;;;;;;;4388993;32;316657;-83
2023/08/08 07:02:33;;;;;;;2.10;1.90;;;;;;;;;;4376019;32;316906;-84
2023/08/08 07:05:01;;;;;;;8.70;3.67;;;;;;;;;;4388513;32;316661;-82
2023/08/08 07:07:30;;;;;;;10.25;5.15;;;;;;;;;;4376975;32;316888;-83
2023/08/08 07:10:00;;;;;;;12.40;4.62;;;;;;;;;;4387866;32;317931;-82
2023/08/08 07:12:28;;;;;;;9.73;4.50;;;;;;;;;;4375679;32;332504;-83
2023/08/08 07:14:55;;;;;;;3.97;2.37;;;;;;;;;;4388343;32;316818;-83
2023/08/08 07:17:22;;;;;;;2.28;2.00;;;;;;;;;;4377387;32;317139;-82
2023/08/08 07:19:50;;;;;;;2.80;1.75;;;;;;;;;;4386670;32;316734;-83
2023/08/08 07:22:17;;;;;;;1.85;1.55;;;;;;;;;;4388661;32;316741;-82
2023/08/08 07:24:45;;;;;;;2.78;1.17;;;;;;;;;;4373955;32;416192;-82
2023/08/08 07:27:51;;;;;;;2.00;1.50;;;;;;;;;;4388022;32;316761;-84
2023/08/08 07:30:19;;;;;;;2.17;1.73;;;;;;;;;;4374700;32;416509;-85
2023/08/08 07:32:46;;;;;;;2.97;1.55;;;;;;;;;;4387714;32;317044;-83
2023/08/08 07:35:15;;;;;;;3.90;1.80;;;;;;;;;;4388555;32;316867;-83
2023/08/08 07:37:43;;;;;;;2.00;1.70;;;;;;;;;;4376966;32;317071;-83
2023/08/08 07:40:20;;;;;;;4.55;1.60;;;;;;;;;;4386941;32;316758;-83
2023/08/08 07:42:48;;;;;;;7.50;2.22;;;;;;;;;;4376239;32;385928;-84
2023/08/08 07:45:17;;;;;;;2.17;1.73;;;;;;;;;;4388214;32;316724;-82
2023/08/08 07:47:45;;;;;;;5.25;3.42;;;;;;;;;;4375030;32;416255;-81
2023/08/08 07:50:13;;;;;;;8.48;3.42;;;;;;;;;;4386580;32;316555;-82
2023/08/08 07:52:41;;;;;;;1.90;1.70;;;;;;;;;;4377102;32;317027;-81
2023/08/08 07:55:10;;;;;;;1.67;1.58;;;;;;;;;;4374320;32;316491;-84
2023/08/08 07:57:37;;;;;;;2.42;1.50;;;;;;;;;;4370502;32;316750;-84
2023/08/08 08:00:11;;;;;;;1.92;1.67;;;;;;;;;;4387756;32;316875;-83
2023/08/08 08:02:41;;;;;;;2.40;2.10;;;;;;;;;;4375033;32;316664;-82
2023/08/08 08:05:09;;;;;;;1.45;1.33;;;;;;;;;;4386270;32;316791;-81
2023/08/08 08:07:37;;;;;;;2.97;2.00;;;;;;;;;;4377356;32;316900;-81
2023/08/08 08:10:08;;;;;;;1.40;1.20;;;;;;;;;;4386975;32;316533;-82
2023/08/08 08:12:36;;;;;;;2.12;1.65;;;;;;;;;;4376262;32;316636;-83
2023/08/08 08:15:04;;;;;;;1.50;1.40;;;;;;;;;;4386880;32;316637;-83
2023/08/08 08:17:31;;;;;;;1.48;1.37;;;;;;;;;;4376307;32;316738;-83
2023/08/08 08:20:05;;;;;;;2.58;1.40;;;;;;;;;;4386531;32;316710;-83
2023/08/08 08:22:32;;;;;;;2.28;1.40;;;;;;;;;;4375825;32;317291;-83
2023/08/08 08:25:00;;;;;;;1.58;1.20;;;;;;;;;;4387110;32;317103;-83
2023/08/08 08:27:27;;;;;;;1.80;1.02;;;;;;;;;;4375806;32;316721;-83
2023/08/08 08:29:54;;;;;;;1.65;1.55;;;;;;;;;;4387287;32;316703;-83
2023/08/08 08:32:22;;;;;;;3.40;1.30;;;;;;;;;;4372327;32;347396;-82
2023/08/08 08:34:49;;;;;;;1.20;1.10;;;;;;;;;;4385926;32;316736;-82
2023/08/08 08:37:18;;;;;;;5.12;1.30;;;;;;;;;;4386408;32;317047;-83
2023/08/08 08:39:45;;;;;;;1.70;1.37;;;;;;;;;;4372846;32;415958;-82
2023/08/08 08:42:16;;;;;;;2.25;1.10;;;;;;;;;;4387206;32;316525;-82
2023/08/08 08:44:49;;;;;;;1.30;1.20;;;;;;;;;;4374337;32;416251;-82
2023/08/08 08:47:19;;;;;;;1.67;1.20;;;;;;;;;;4387053;32;316949;-82
2023/08/08 08:49:47;;;;;;;1.52;1.23;;;;;;;;;;4374246;32;416634;-83
2023/08/08 08:52:14;;;;;;;3.28;1.40;;;;;;;;;;4385249;32;316742;-83
2023/08/08 08:54:44;;;;;;;1.33;1.10;;;;;;;;;;4375645;32;333532;-81
2023/08/08 08:57:11;;;;;;;1.45;1.35;;;;;;;;;;4386106;32;316770;-82
2023/08/08 08:59:39;;;;;;;2.05;1.52;;;;;;;;;;4376787;32;316739;-82
2023/08/08 09:02:09;;;;;;;1.20;1.10;;;;;;;;;;4386824;32;316730;-83
2023/08/08 09:04:37;;;;;;;1.73;1.15;;;;;;;;;;4376648;32;316638;-82
2023/08/08 09:07:07;;;;;;;2.62;1.40;;;;;;;;;;4384979;32;316918;-82
2023/08/08 09:09:36;;;;;;;2.87;1.15;;;;;;;;;;4375762;32;316880;-82
2023/08/08 09:12:06;;;;;;;1.42;0.93;;;;;;;;;;4386908;32;317136;-81
2023/08/08 09:14:34;;;;;;;2.75;1.30;;;;;;;;;;4375798;32;317170;-82
2023/08/08 09:17:02;;;;;;;1.60;1.17;;;;;;;;;;4386108;32;316620;-81
2023/08/08 09:19:29;;;;;;;1.77;1.02;;;;;;;;;;4376187;32;316673;-83
2023/08/08 09:21:57;;;;;;;1.23;1.12;;;;;;;;;;4385783;32;317031;-82
2023/08/08 09:24:24;;;;;;;1.02;0.90;;;;;;;;;;4375336;32;316782;-81
2023/08/08 09:26:52;;;;;;;2.60;1.20;;;;;;;;;;4385570;32;316956;-81
2023/08/08 09:29:23;;;;;;;1.90;1.50;;;;;;;;;;4371055;32;316930;-82
2023/08/08 09:31:51;;;;;;;1.45;1.35;;;;;;;;;;4385514;32;316716;-84
2023/08/08 09:34:19;;;;;;;5.03;1.80;;;;;;;;;;4372182;32;316744;-83
2023/08/08 09:36:47;;;;;;;1.40;1.30;;;;;;;;;;4386328;32;316896;-84
2023/08/08 09:39:17;;;;;;;1.83;1.55;;;;;;;;;;4384190;32;316507;-81
2023/08/08 09:41:48;;;;;;;2.83;1.50;;;;;;;;;;4373490;32;416208;-83
2023/08/08 09:44:15;;;;;;;2.15;1.30;;;;;;;;;;4386377;32;316474;-84
2023/08/08 09:46:45;;;;;;;1.10;1.00;;;;;;;;;;4372232;32;385078;-81
2023/08/08 09:49:14;;;;;;;1.40;1.20;;;;;;;;;;4384987;32;316844;-81
2023/08/08 09:51:42;;;;;;;4.90;1.20;;;;;;;;;;4358340;32;350654;-81
2023/08/08 09:54:11;;;;;;;3.40;1.70;;;;;;;;;;4381905;32;316835;-81
2023/08/08 09:56:40;;;;;;;1.65;1.30;;;;;;;;;;4374229;32;316644;-82
2023/08/08 09:59:08;;;;;;;1.45;1.15;;;;;;;;;;4386399;32;316846;-80
2023/08/08 10:01:38;;;;;;;2.53;1.30;;;;;;;;;;4365957;32;316866;-84
2023/08/08 10:04:10;;;;;;;5.00;1.60;;;;;;;;;;4385896;32;316813;-83
2023/08/08 10:06:37;;;;;;;1.60;1.50;;;;;;;;;;4375491;32;317330;-84
2023/08/08 10:09:06;;;;;;;1.83;1.27;;;;;;;;;;4386246;32;316752;-83
2023/08/08 10:11:35;;;;;;;1.65;0.98;;;;;;;;;;4374208;32;316883;-84
2023/08/08 10:14:04;;;;;;;2.92;1.50;;;;;;;;;;4384332;32;316767;-81
2023/08/08 10:16:35;;;;;;;1.67;1.37;;;;;;;;;;4373759;32;316762;-80
2023/08/08 10:19:05;;;;;;;2.85;1.42;;;;;;;;;;4367263;32;316717;-82
2023/08/08 10:21:36;;;;;;;1.87;1.30;;;;;;;;;;4374055;32;316686;-81
2023/08/08 10:24:08;;;;;;;1.25;1.15;;;;;;;;;;4385036;32;316797;-80
2023/08/08 10:26:52;;;;;;;1.85;1.25;;;;;;;;;;4375898;32;316540;-80
2023/08/08 10:29:20;;;;;;;2.05;1.15;;;;;;;;;;4374680;32;316607;-84
2023/08/08 10:31:53;;;;;;;2.37;1.17;;;;;;;;;;4385180;32;316615;-82
2023/08/08 10:34:22;;;;;;;3.05;1.40;;;;;;;;;;4376054;32;316622;-85
2023/08/08 10:36:54;;;;;;;1.62;1.10;;;;;;;;;;4385427;32;316576;-84
2023/08/08 10:39:22;;;;;;;2.40;1.20;;;;;;;;;;4373338;32;316668;-80
2023/08/08 10:41:51;;;;;;;1.70;1.10;;;;;;;;;;4385211;32;316493;-86
2023/08/08 10:44:26;;;;;;;2.42;1.37;;;;;;;;;;4376365;32;316735;-84
2023/08/08 10:46:54;;;;;;;1.67;1.20;;;;;;;;;;4369783;32;316773;-82
2023/08/08 10:49:24;;;;;;;2.47;1.23;;;;;;;;;;4375791;32;316568;-81
2023/08/08 10:51:53;;;;;;;1.30;1.00;;;;;;;;;;4383082;32;317074;-80
2023/08/08 10:54:27;;;;;;;3.47;1.45;;;;;;;;;;4366464;32;317218;-82
2023/08/08 10:56:59;;;;;;;1.60;1.27;;;;;;;;;;4369214;32;317060;-82
2023/08/08 10:59:30;;;;;;;1.25;1.10;;;;;;;;;;4374159;32;316771;-81
2023/08/08 11:02:01;;;;;;;2.00;1.00;;;;;;;;;;4388084;32;316948;-83
2023/08/08 11:04:29;;;;;;;3.00;1.13;;;;;;;;;;4375604;32;332082;-84
2023/08/08 11:06:59;;;;;;;1.25;0.95;;;;;;;;;;4387182;32;332106;-84
2023/08/08 11:09:26;;;;;;;1.08;0.80;;;;;;;;;;4376165;32;316860;-85
2023/08/08 11:11:54;;;;;;;1.75;1.33;;;;;;;;;;4388088;32;316884;-84
2023/08/08 11:14:22;;;;;;;1.95;1.10;;;;;;;;;;4376568;32;316859;-83
2023/08/08 11:16:51;;;;;;;0.98;0.90;;;;;;;;;;4387699;32;316734;-85
2023/08/08 11:19:20;;;;;;;1.45;0.98;;;;;;;;;;4373746;32;316971;-83
2023/08/08 11:21:48;;;;;;;2.92;1.10;;;;;;;;;;4386790;32;316839;-85
2023/08/08 11:24:17;;;;;;;5.22;1.83;;;;;;;;;;4387691;32;316786;-83
2023/08/08 11:26:47;;;;;;;1.50;1.10;;;;;;;;;;4375387;32;416297;-79
2023/08/08 11:29:14;;;;;;;1.60;1.00;;;;;;;;;;4386853;32;315623;-80
2023/08/08 11:31:43;;;;;;;2.45;0.90;;;;;;;;;;4377747;32;316839;-78
2023/08/08 11:34:12;;;;;;;0.80;0.80;;;;;;;;;;4386728;32;325106;-78
2023/08/08 11:36:40;;;;;;;1.33;1.12;;;;;;;;;;4377504;32;317146;-78
2023/08/08 11:39:09;;;;;;;3.90;1.00;;;;;;;;;;4386501;32;316795;-77
2023/08/08 11:41:40;;;;;;;1.15;0.85;;;;;;;;;;4376430;32;316579;-78
2023/08/08 11:44:08;;;;;;;0.80;0.80;;;;;;;;;;4385747;32;316649;-77
2023/08/08 11:46:36;;;;;;;1.00;0.90;;;;;;;;;;4370899;32;316738;-80
2023/08/08 11:49:06;;;;;;;3.00;1.10;;;;;;;;;;4387824;32;316771;-79
2023/08/08 11:51:34;;;;;;;1.08;0.85;;;;;;;;;;4374815;32;316829;-79
2023/08/08 11:54:03;;;;;;;1.62;1.00;;;;;;;;;;4387608;32;316923;-81
2023/08/08 11:56:34;;;;;;;0.65;0.60;;;;;;;;;;4375852;32;317055;-84
2023/08/08 12:01:51;;;;;;;0.88;0.50;;;;;;;;;;4371787;32;389967;-83
2023/08/08 12:04:22;;;;;;;0.70;0.70;;;;;;;;;;4375544;32;316835;-82
2023/08/08 12:06:51;;;;;;;0.60;0.60;;;;;;;;;;4386968;32;316778;-81
2023/08/08 12:09:20;;;;;;;1.45;0.70;;;;;;;;;;4384686;32;316777;-83
2023/08/08 12:11:47;;;;;;;0.80;0.80;;;;;;;;;;4386509;32;316640;-79
2023/08/08 12:14:16;;;;;;;0.80;0.65;;;;;;;;;;4387742;32;315541;-81
2023/08/08 12:16:44;;;;;;;1.17;0.60;;;;;;;;;;4375293;32;388066;-82
2023/08/08 12:19:14;;;;;;;1.08;0.60;;;;;;;;;;4386501;32;316879;-84
2023/08/08 12:21:41;;;;;;;0.80;0.57;;;;;;;;;;4374113;32;316826;-85
2023/08/08 12:24:09;;;;;;;0.60;0.60;;;;;;;;;;4386710;32;317054;-85
2023/08/08 12:26:36;;;;;;;0.50;0.50;;;;;;;;;;4374362;32;316686;-86
2023/08/08 12:29:04;;;;;;;4.85;1.00;;;;;;;;;;4386294;32;316840;-85
2023/08/08 12:31:34;;;;;;;0.52;0.50;;;;;;;;;;4375710;32;316671;-86
2023/08/08 12:34:02;;;;;;;0.95;0.73;;;;;;;;;;4387413;32;316989;-86
2023/08/08 12:36:29;;;;;;;0.55;0.43;;;;;;;;;;4375925;32;316855;-86
2023/08/08 12:38:57;;;;;;;0.70;0.60;;;;;;;;;;4387424;32;316956;-86
2023/08/08 12:41:25;;;;;;;0.55;0.37;;;;;;;;;;4375906;32;317044;-85
2023/08/08 12:43:53;;;;;;;1.10;0.90;;;;;;;;;;4386040;32;316806;-84
2023/08/08 12:46:20;;;;;;;1.02;0.50;;;;;;;;;;4374485;32;352146;-83
2023/08/08 12:48:52;;;;;;;4.45;0.50;;;;;;;;;;4387311;32;316677;-81
2023/08/08 12:51:21;;;;;;;2.47;0.50;;;;;;;;;;4375898;32;316632;-83
2023/08/08 12:53:51;;;;;;;0.75;0.57;;;;;;;;;;4385723;32;316473;-83
2023/08/08 12:56:23;;;;;;;0.90;0.43;;;;;;;;;;4385732;32;316455;-84
2023/08/08 12:58:50;;;;;;;1.30;0.70;;;;;;;;;;4374192;32;416260;-84
2023/08/08 13:01:18;;;;;;;0.62;0.57;;;;;;;;;;4386984;32;316872;-84
2023/08/08 13:03:45;;;;;;;0.60;0.60;;;;;;;;;;4373073;32;415926;-84
2023/08/08 13:06:14;;;;;;;0.40;0.40;;;;;;;;;;4385733;32;316877;-84
2023/08/08 13:08:42;;;;;;;4.57;0.40;;;;;;;;;;4376501;32;316993;-84
2023/08/08 13:11:09;;;;;;;0.50;0.50;;;;;;;;;;4385807;32;357187;-84
2023/08/08 13:13:37;;;;;;;1.27;0.60;;;;;;;;;;4376322;32;317096;-84
2023/08/08 13:16:05;;;;;;;0.65;0.40;;;;;;;;;;4384877;32;342143;-85
2023/08/08 13:18:33;;;;;;;0.30;0.30;;;;;;;;;;4376029;32;316849;-85
2023/08/08 13:21:00;;;;;;;0.88;0.70;;;;;;;;;;4386333;32;316848;-84
2023/08/08 13:23:30;;;;;;;0.50;0.50;;;;;;;;;;4375680;32;317054;-84
2023/08/08 13:25:57;;;;;;;0.77;0.52;;;;;;;;;;4386494;32;316699;-84
2023/08/08 13:28:25;;;;;;;0.60;0.43;;;;;;;;;;4375122;32;316715;-84
2023/08/08 13:30:53;;;;;;;1.20;0.60;;;;;;;;;;4384958;32;316763;-84
2023/08/08 13:33:20;;;;;;;1.23;0.55;;;;;;;;;;4371997;32;354722;-84
2023/08/08 13:35:48;;;;;;;41.80;28.90;;;;;;;;;;4386009;32;316456;-85
2023/08/08 13:38:15;;;;;;;11.32;7.72;;;;;;;;;;4383890;32;344908;-84
2023/08/08 13:40:44;;;;;;;2.80;1.30;;;;;;;;;;4376133;32;317659;-84
2023/08/08 13:43:12;;;;;;;1.05;0.95;;;;;;;;;;4385825;32;316757;-81
2023/08/08 13:45:39;;;;;;;1.17;0.98;;;;;;;;;;4375234;32;316850;-85
2023/08/08 13:48:07;;;;;;;2.42;0.70;;;;;;;;;;4385790;32;316575;-84
2023/08/08 13:50:35;;;;;;;6.60;0.75;;;;;;;;;;4374899;32;316715;-82
2023/08/08 13:53:02;;;;;;;1.60;0.80;;;;;;;;;;4385876;32;316971;-82
2023/08/08 13:55:31;;;;;;;4.32;2.50;;;;;;;;;;4373549;32;316804;-82
2023/08/08 13:58:00;;;;;;;5.30;1.40;;;;;;;;;;4385446;32;316759;-84
2023/08/08 14:00:28;;;;;;;0.60;0.50;;;;;;;;;;4374710;32;316666;-84
2023/08/08 14:02:55;;;;;;;0.60;0.60;;;;;;;;;;4371442;32;317392;-82
2023/08/08 14:05:23;;;;;;;0.60;0.50;;;;;;;;;;4374808;32;316692;-83
2023/08/08 14:07:50;;;;;;;1.70;1.02;;;;;;;;;;4386047;32;315759;-83
2023/08/08 14:10:17;;;;;;;0.52;0.50;;;;;;;;;;4384448;32;316735;-82
2023/08/08 14:12:45;;;;;;;0.40;0.40;;;;;;;;;;4373241;32;385463;-82
2023/08/08 14:15:14;;;;;;;1.10;0.50;;;;;;;;;;4386217;32;316860;-84
2023/08/08 14:17:41;;;;;;;0.50;0.50;;;;;;;;;;4374098;32;316656;-81
2023/08/08 14:20:10;;;;;;;1.95;0.77;;;;;;;;;;4383727;32;316580;-80
2023/08/08 14:22:37;;;;;;;0.50;0.50;;;;;;;;;;4374943;32;316868;-81
2023/08/08 14:25:06;;;;;;;0.45;0.43;;;;;;;;;;4371153;32;316602;-83
2023/08/08 14:27:33;;;;;;;0.70;0.55;;;;;;;;;;4375366;32;316874;-84
2023/08/08 14:30:03;;;;;;;0.70;0.70;;;;;;;;;;4384019;32;316650;-88
2023/08/08 14:32:32;;;;;;;0.68;0.57;;;;;;;;;;4373444;32;316828;-87
2023/08/08 14:35:02;;;;;;;0.60;0.50;;;;;;;;;;4386584;32;316905;-87
2023/08/08 14:37:30;;;;;;;1.95;0.73;;;;;;;;;;4375721;32;356342;-88
2023/08/08 14:39:58;;;;;;;0.50;0.50;;;;;;;;;;4386711;32;317157;-87
2023/08/08 14:42:26;;;;;;;0.68;0.55;;;;;;;;;;4376946;32;316722;-88
2023/08/08 14:44:53;;;;;;;0.70;0.70;;;;;;;;;;4388248;32;316761;-88
2023/08/08 14:47:21;;;;;;;1.12;0.57;;;;;;;;;;4377022;32;316843;-86
2023/08/08 14:49:51;;;;;;;0.62;0.50;;;;;;;;;;4388532;32;316742;-85
2023/08/08 14:52:18;;;;;;;0.62;0.60;;;;;;;;;;4388578;32;316725;-85
2023/08/08 14:54:45;;;;;;;1.42;0.57;;;;;;;;;;4372272;32;416103;-86